Winnipeg, Manitoba

12:39 AM CST on November 29, 2014 (GMT -0600)
Winnipeg | Change Station
CLOSE
Current Station
Airport
Location: Winnipeg,
Elevation: 784 ft
Nearby Weather Stations

Elev 784 ft 49.90 °N, 97.23 °W | Updated 39 minutes ago

Light Snow
Light Snow
14 °F
Feels Like 1 °F
N
10
Wind Variable Wind from ESE

Today is forecast to be nearly the same temperature as yesterday.

Today
High -- | Low -- °F
--% Chance of Precip.
Yesterday
High -- | Low -- °F
Precip. -- in
8:02 AM 4:31 PM
Waxing Crescent, 48% visible
Pressure 29.65 in
Visibility 6.0 miles
Clouds Overcast 2200 ft
Windchill 1 °F
Dew Point 9 °F
Humidity 79%
Rainfall 0.00 in
Snow Depth Not available.
UV 0 out of 12
Pollen Not available.
Air Quality Not available.
Flu Activity Not available.
METAR CYWG 290600Z 12009KT 6SM -SN OVC022 M10/M13 A2959 RMK SC8 SLP039

More Conditions Fewer Conditions

Pressure 29.65 in
Visibility 6.0 miles
Clouds Overcast 2200 ft
Windchill 1 °F
Dew Point 9 °F
Humidity 79%
Rainfall 0.00 in
Snow Depth Not available.
UV 0 out of 12
Pollen Not available.
Air Quality Not available.
Flu Activity Not available.
METAR CYWG 290600Z 12009KT 6SM -SN OVC022 M10/M13 A2959 RMK SC8 SLP039

More Conditions Fewer Conditions

10-Day Weather Forecast

Almanac

Astronomy

Nov. 29, 2014 Rise Set
Actual Time
Civil Twilight
Nautical Twilight
Astronomical Twilight
Moon
Length of Visible Light
Length of Day
Tomorrow will be .
, % of the Moon is Illuminated

Today's Extremes

Country Highs Country Lows

Community

WunderPhotos

Upload Photos

1,774,431 photos uploaded!

WunderBlogs® & News

Nearby

Air Quality

  Air Quality AQ Index Pollutant
Not available.

Snow Depth

Station Depth Elevation

Earthquake Activity

City Distance Mag. Time & Date
Minimum magnitude displayed is 2.5.

Coastal Water Temperatures

Place Temperature

Nearby Weather Stations